Louisa, VA

8:34 PM EST on February 05, 2016 (GMT -0500)
Louisa County-Freeman

Weather History for KLKU - January, 2012

Change the Weather History Date:

Sunday, January 15, 2012

  Actual Average (KCHO) Record (KCHO)
Temperature  
Mean Temperature 27 °F 35 °F  
Max Temperature 35 °F 44 °F 75 °F (1928)
Min Temperature 17 °F 26 °F 5 °F (1994)
Degree Days  
Heating Degree Days 38 30  
Month to date heating degree days 450  
Since 1 July heating degree days 2186  
Cooling Degree Days 0 0  
Month to date cooling degree days 0  
Year to date cooling degree days 0  
Moisture  
Dew Point 13 °F    
Average Humidity 55    
Maximum Humidity 79    
Minimum Humidity 35    
Precipitation  
Precipitation 0.00 in 0.10 in 1.10 in (2013)
Month to date precipitation 1.38  
Year to date precipitation 1.38  
Sea Level Pressure  
Sea Level Pressure 30.36 in    
Wind  
Wind Speed 4 mph (NNE)    
Max Wind Speed 12 mph    
Max Gust Speed -    
Visibility 10 miles    
Events      
T = Trace of Precipitation, MM = Missing Value Source: NWS Daily Summary

Daily Weather History Graph

Daily Weather History Graph

Search for Another Location

Airport or City:

Trip Planner

Search our weather history database for the weather conditions in past years. The results will help you decide how hot, cold, wet, or windy it might be!

Date:

Astronomy

Jan. 15, 2012 Rise Set
Actual Time 7:26 AM EST 5:15 PM EST
Civil Twilight 6:58 AM EST 5:44 PM EST
Nautical Twilight 6:25 AM EST 6:17 PM EST
Astronomical Twilight 5:54 AM EST 6:48 PM EST
Moon No Moon Rise 10:51 AM EST (1/15)
Length of Visible Light 10h 46m
Length of Day
9h 48m
Waning Gibbous, 58% of the Moon is Illuminated
Jan 15
Waning Gibbous
Jan 16
Last Quarter
Jan 23
New
Jan 30
First Quarter
Feb 7
Full

Hourly Weather History & Observations

Time (EST) Temp. Windchill Dew Point Humidity Pressure Visibility Wind Dir Wind Speed Gust Speed Precip Events Conditions
12:35 AM 26.6 °F 21.2 °F 17.6 °F 69% 30.13 in 10.0 mi NNE 4.6 mph - N/A   Scattered Clouds
12:55 AM 26.6 °F - 15.8 °F 64% 30.13 in 10.0 mi Calm Calm - N/A   Overcast
1:15 AM 28.4 °F - 15.8 °F 59% 30.13 in 10.0 mi Calm Calm - N/A   Overcast
1:35 AM 26.6 °F 22.6 °F 15.8 °F 64% 30.14 in 10.0 mi NE 3.5 mph - N/A   Overcast
1:55 AM 26.6 °F - 15.8 °F 64% 30.14 in 10.0 mi Calm Calm - N/A   Overcast
2:15 AM 26.6 °F 22.6 °F 15.8 °F 64% 30.15 in 10.0 mi ENE 3.5 mph - N/A   Overcast
2:35 AM 26.6 °F 22.6 °F 15.8 °F 64% 30.15 in 10.0 mi ENE 3.5 mph - N/A   Overcast
2:55 AM 26.6 °F 22.6 °F 15.8 °F 64% 30.15 in 10.0 mi ENE 3.5 mph - N/A   Overcast
3:15 AM 26.6 °F 22.6 °F 15.8 °F 64% 30.16 in 10.0 mi NE 3.5 mph - N/A   Mostly Cloudy
3:35 AM 26.6 °F 21.2 °F 15.8 °F 64% 30.17 in 10.0 mi NNE 4.6 mph - N/A   Mostly Cloudy
3:55 AM 26.6 °F 22.6 °F 15.8 °F 64% 30.17 in 10.0 mi NNE 3.5 mph - N/A   Mostly Cloudy
4:35 AM 26.6 °F 22.6 °F 15.8 °F 64% 30.19 in 10.0 mi NNE 3.5 mph - N/A   Overcast
4:55 AM 26.6 °F 22.6 °F 15.8 °F 64% 30.20 in 10.0 mi NNE 3.5 mph - N/A   Overcast
5:15 AM 26.6 °F 20.0 °F 15.8 °F 64% 30.21 in 10.0 mi North 5.8 mph - N/A   Overcast
5:35 AM 26.6 °F 22.6 °F 15.8 °F 64% 30.21 in 10.0 mi NNE 3.5 mph - N/A   Mostly Cloudy
5:55 AM 26.6 °F 22.6 °F 15.8 °F 64% 30.23 in 10.0 mi North 3.5 mph - N/A   Clear
6:15 AM 26.6 °F 22.6 °F 15.8 °F 64% 30.25 in 10.0 mi North 3.5 mph - N/A   Mostly Cloudy
6:35 AM 26.6 °F 21.2 °F 15.8 °F 64% 30.26 in 10.0 mi North 4.6 mph - N/A   Overcast
7:15 AM 24.8 °F 19.1 °F 15.8 °F 69% 30.29 in 10.0 mi North 4.6 mph - N/A   Clear
7:35 AM 24.8 °F 20.5 °F 14.0 °F 64% 30.30 in 10.0 mi North 3.5 mph - N/A   Clear
7:55 AM 26.6 °F 20.0 °F 14.0 °F 59% 30.32 in 10.0 mi North 5.8 mph - N/A   Clear
8:15 AM 26.6 °F 20.0 °F 14.0 °F 59% 30.33 in 10.0 mi North 5.8 mph - N/A   Clear
8:35 AM 28.4 °F 19.7 °F 12.2 °F 51% 30.34 in 10.0 mi NNE 9.2 mph - N/A   Clear
8:55 AM 28.4 °F 22.2 °F 12.2 °F 51% 30.36 in 10.0 mi North 5.8 mph - N/A   Clear
9:15 AM 30.2 °F 21.9 °F 12.2 °F 47% 30.37 in 10.0 mi NNE 9.2 mph - N/A   Clear
9:35 AM 30.2 °F 21.9 °F 14.0 °F 51% 30.39 in 10.0 mi NNE 9.2 mph - N/A   Clear
9:55 AM 30.2 °F 23.4 °F 12.2 °F 47% 30.40 in 10.0 mi North 6.9 mph - N/A   Clear
10:15 AM 32.0 °F 24.2 °F 12.2 °F 44% 30.41 in 10.0 mi North 9.2 mph - N/A   Clear
10:35 AM 32.0 °F 23.0 °F 12.2 °F 44% 30.41 in 10.0 mi NNE 11.5 mph - N/A   Clear
10:55 AM 32.0 °F 24.8 °F 12.2 °F 44% 30.41 in 10.0 mi North 8.1 mph - N/A   Clear
11:15 AM 33.8 °F 27.0 °F 12.2 °F 41% 30.41 in 10.0 mi NW 8.1 mph - N/A   Clear
11:35 AM 33.8 °F 27.0 °F 14.0 °F 44% 30.40 in 10.0 mi North 8.1 mph - N/A   Clear
11:55 AM 35.6 °F 28.6 °F 12.2 °F 38% 30.39 in 10.0 mi NNW 9.2 mph - N/A   Clear
12:15 PM 35.6 °F 30.7 °F 12.2 °F 38% 30.40 in 10.0 mi NW 5.8 mph - N/A   Clear
12:35 PM 35.6 °F 28.6 °F 12.2 °F 38% 30.39 in 10.0 mi North 9.2 mph - N/A   Clear
1:15 PM 35.6 °F 28.6 °F 12.2 °F 38% 30.39 in 10.0 mi NW 9.2 mph - N/A   Clear
1:35 PM 35.6 °F 30.7 °F 10.4 °F 35% 30.40 in 10.0 mi NW 5.8 mph - N/A   Clear
1:55 PM 35.6 °F - 12.2 °F 38% 30.40 in 10.0 mi Calm Calm - N/A   Clear
2:15 PM 35.6 °F 29.2 °F 10.4 °F 35% 30.40 in 10.0 mi NNE 8.1 mph - N/A   Clear
2:35 PM 35.6 °F 31.7 °F 10.4 °F 35% 30.41 in 10.0 mi NNE 4.6 mph - N/A   Clear
2:55 PM 35.6 °F 31.7 °F 12.2 °F 38% 30.42 in 10.0 mi NE 4.6 mph - N/A   Clear
3:15 PM 35.6 °F 29.9 °F 12.2 °F 38% 30.42 in 10.0 mi North 6.9 mph - N/A   Clear
3:35 PM 35.6 °F 32.8 °F 10.4 °F 35% 30.43 in 10.0 mi North 3.5 mph - N/A   Clear
3:55 PM 35.6 °F - 10.4 °F 35% 30.43 in 10.0 mi Calm Calm - N/A   Clear
4:15 PM 35.6 °F 31.7 °F 12.2 °F 38% 30.44 in 10.0 mi NE 4.6 mph - N/A   Clear
4:35 PM 35.6 °F 32.8 °F 12.2 °F 38% 30.44 in 10.0 mi East 3.5 mph - N/A   Clear
4:55 PM 33.8 °F 30.8 °F 12.2 °F 41% 30.44 in 10.0 mi ENE 3.5 mph - N/A   Clear
5:15 PM 32.0 °F 28.7 °F 12.2 °F 44% 30.45 in 10.0 mi ENE 3.5 mph - N/A   Clear
5:35 PM 28.4 °F - 14.0 °F 55% 30.46 in 10.0 mi Calm Calm - N/A   Clear
5:55 PM 26.6 °F - 14.0 °F 59% 30.47 in 10.0 mi Calm Calm - N/A   Clear
6:15 PM 26.6 °F 22.6 °F 12.2 °F 55% 30.48 in 10.0 mi East 3.5 mph - N/A   Clear
6:35 PM 26.6 °F 22.6 °F 12.2 °F 55% 30.48 in 10.0 mi East 3.5 mph - N/A   Clear
6:55 PM 24.8 °F - 12.2 °F 59% 30.48 in 10.0 mi Calm Calm - N/A   Clear
7:15 PM 26.6 °F 22.6 °F 12.2 °F 55% 30.49 in 10.0 mi ENE 3.5 mph - N/A   Clear
7:35 PM 24.8 °F - 12.2 °F 59% 30.50 in 10.0 mi Calm Calm - N/A   Clear
7:55 PM 21.2 °F - 12.2 °F 68% 30.51 in 10.0 mi Calm Calm - N/A   Clear
8:15 PM 21.2 °F - 12.2 °F 68% 30.52 in 10.0 mi Calm Calm - N/A   Clear
8:35 PM 21.2 °F - 12.2 °F 68% 30.52 in 10.0 mi Calm Calm - N/A   Clear
8:55 PM 21.2 °F 16.4 °F 12.2 °F 68% 30.52 in 10.0 mi East 3.5 mph - N/A   Clear
9:15 PM 19.4 °F - 12.2 °F 74% 30.53 in 10.0 mi Calm Calm - N/A   Clear
9:35 PM 19.4 °F - 12.2 °F 74% 30.53 in 10.0 mi Calm Calm - N/A   Clear
9:55 PM 19.4 °F - 12.2 °F 74% 30.54 in 10.0 mi Calm Calm - N/A   Clear
10:15 PM 17.6 °F - 12.2 °F 79% 30.53 in 10.0 mi Calm Calm - N/A   Clear
10:35 PM 21.2 °F - 12.2 °F 68% 30.53 in 10.0 mi Calm Calm - N/A   Clear
10:55 PM 19.4 °F - 12.2 °F 74% 30.54 in 10.0 mi Calm Calm - N/A   Clear
11:15 PM 17.6 °F - 12.2 °F 79% 30.55 in 10.0 mi Calm Calm - N/A   Clear
11:35 PM 17.6 °F - 12.2 °F 79% 30.56 in 10.0 mi Calm Calm - N/A   Clear
11:55 PM 17.6 °F - 12.2 °F 79% 30.55 in 10.0 mi Calm Calm - N/A   Clear